Time;durP1;ratioP1;P1;durP2;ratioP2;P2;SDS_P1;SDS_P2;PMS_P1;PMS_P2;Temp;Humidity;BMP_temperature;BMP_pressure;BME280_temperature;BME280_humidity;BME280_pressure;Samples;Min_cycle;Max_cycle;Signal;HPM_P1;HPM_P2
2023/03/22 00:01:14;;;;;;;12.80;8.63;;;;;;;13.13;54.76;96020.13;5029185;28;20406;-69
2023/03/22 00:03:39;;;;;;;9.97;8.90;;;;;;;13.15;54.04;96022.66;5029374;28;20406;-70
2023/03/22 00:06:05;;;;;;;11.47;9.37;;;;;;;13.10;54.68;96028.19;5029119;28;20434;-70
2023/03/22 00:08:31;;;;;;;12.87;8.77;;;;;;;13.16;54.41;96021.72;5029613;28;20168;-70
2023/03/22 00:10:56;;;;;;;9.20;8.20;;;;;;;13.19;54.32;96016.25;5029378;28;20417;-69
2023/03/22 00:13:22;;;;;;;27.07;11.10;;;;;;;13.08;54.16;96014.25;5029896;28;20167;-69
2023/03/22 00:15:48;;;;;;;16.70;10.00;;;;;;;12.98;54.54;96020.19;5029617;28;20191;-70
2023/03/22 00:18:14;;;;;;;22.77;10.13;;;;;;;12.94;55.72;96016.88;5029636;28;20177;-69
2023/03/22 00:20:52;;;;;;;12.60;8.87;;;;;;;12.88;55.48;96020.72;5029673;28;20702;-69
2023/03/22 00:23:17;;;;;;;8.90;8.00;;;;;;;13.09;54.89;96012.50;5029474;28;20433;-69
2023/03/22 00:25:44;;;;;;;11.33;8.53;;;;;;;12.98;55.21;96014.91;5029365;28;20510;-70
2023/03/22 00:28:11;;;;;;;11.03;9.50;;;;;;;12.88;55.31;96017.25;5029543;28;20170;-70
2023/03/22 00:30:36;;;;;;;9.93;9.03;;;;;;;12.75;56.10;96014.47;5029310;28;20414;-69
2023/03/22 00:33:03;;;;;;;10.47;9.47;;;;;;;12.69;56.67;96010.44;5029573;28;20888;-69
2023/03/22 00:35:29;;;;;;;18.23;9.60;;;;;;;12.68;56.15;96011.38;5029407;28;20691;-70
2023/03/22 00:37:54;;;;;;;11.50;9.50;;;;;;;12.61;57.00;96015.28;5028937;28;20421;-69
2023/03/22 00:40:20;;;;;;;9.90;9.00;;;;;;;12.62;56.56;96013.50;5029408;28;20199;-69
2023/03/22 00:42:45;;;;;;;10.00;8.57;;;;;;;12.78;55.67;96009.06;5029135;28;20175;-70
2023/03/22 00:45:11;;;;;;;9.40;8.50;;;;;;;12.66;56.53;96009.75;5029241;28;20195;-70
2023/03/22 00:47:37;;;;;;;8.80;7.93;;;;;;;12.64;56.59;96004.59;5027987;28;20164;-70
2023/03/22 00:50:05;;;;;;;13.00;9.23;;;;;;;12.68;56.41;96006.13;5028849;28;20456;-70
2023/03/22 00:52:31;;;;;;;9.67;8.70;;;;;;;12.73;56.29;95995.28;5029067;28;20171;-69
2023/03/22 00:54:58;;;;;;;12.20;9.10;;;;;;;12.72;56.93;95993.59;5029174;28;20849;-69
2023/03/22 00:57:23;;;;;;;11.87;8.80;;;;;;;12.64;56.17;95987.97;5028476;28;21220;-70
2023/03/22 00:59:49;;;;;;;12.30;10.00;;;;;;;12.68;56.04;95987.69;5028741;28;20497;-70
2023/03/22 01:02:15;;;;;;;10.40;9.10;;;;;;;12.64;56.48;95990.59;5028729;28;20177;-69
2023/03/22 01:04:48;;;;;;;12.23;10.37;;;;;;;12.63;57.27;95984.44;5028702;28;20178;-69
2023/03/22 01:07:17;;;;;;;15.67;10.00;;;;;;;12.62;56.52;95992.47;5028465;28;20183;-70
2023/03/22 01:09:45;;;;;;;14.60;8.93;;;;;;;12.62;56.49;95993.28;5028539;28;20410;-70
2023/03/22 01:12:11;;;;;;;11.33;9.80;;;;;;;12.53;57.39;95988.56;5028753;28;20543;-70
2023/03/22 01:14:37;;;;;;;13.60;9.73;;;;;;;12.58;57.34;95993.56;5028718;28;21142;-69
2023/03/22 01:17:03;;;;;;;9.93;8.93;;;;;;;12.58;57.08;95990.94;5028362;28;20286;-69
2023/03/22 01:19:29;;;;;;;13.70;10.00;;;;;;;12.44;57.07;96003.09;5028683;28;20234;-69
2023/03/22 01:21:56;;;;;;;15.73;10.30;;;;;;;12.44;57.25;95992.56;5028564;28;20407;-69
2023/03/22 01:24:21;;;;;;;10.13;9.17;;;;;;;12.46;57.89;95993.34;5028630;28;20418;-70
2023/03/22 01:26:47;;;;;;;11.30;9.73;;;;;;;12.49;57.75;95985.25;5028208;28;20627;-69
2023/03/22 01:29:12;;;;;;;15.07;9.43;;;;;;;12.55;57.02;95985.84;5028349;28;20659;-69
2023/03/22 01:31:38;;;;;;;11.07;9.97;;;;;;;12.50;57.43;95978.22;5028173;28;20172;-70
2023/03/22 01:34:03;;;;;;;12.47;9.53;;;;;;;12.41;57.19;95979.59;5028196;28;20262;-69
2023/03/22 01:36:29;;;;;;;27.63;11.77;;;;;;;12.44;57.67;95974.16;5027887;28;20249;-70
2023/03/22 01:38:55;;;;;;;13.23;9.30;;;;;;;12.44;57.79;95973.31;5028026;28;20196;-70
2023/03/22 01:41:21;;;;;;;17.90;10.07;;;;;;;12.40;57.69;95970.03;5028105;28;20235;-69
2023/03/22 01:44:10;;;;;;;15.53;11.00;;;;;;;12.40;58.05;95975.28;5027876;28;20340;-70
2023/03/22 01:46:35;;;;;;;12.23;10.13;;;;;;;12.41;58.24;95974.34;5027639;28;20684;-69
2023/03/22 01:49:03;;;;;;;14.43;10.87;;;;;;;12.47;58.17;95966.09;5028097;28;20425;-70
2023/03/22 01:51:29;;;;;;;12.63;11.30;;;;;;;12.44;58.30;95961.00;5028151;28;20277;-70
2023/03/22 01:54:05;;;;;;;15.97;11.67;;;;;;;12.45;58.58;95964.50;5028262;28;20412;-70
2023/03/22 01:56:34;;;;;;;23.87;12.53;;;;;;;12.46;57.94;95955.66;5027728;28;21113;-70
2023/03/22 01:59:01;;;;;;;14.03;10.03;;;;;;;12.30;58.81;95960.94;5025647;28;20454;-70
2023/03/22 02:01:27;;;;;;;12.80;11.07;;;;;;;12.21;59.24;95962.34;5027666;28;20422;-70
2023/03/22 02:03:57;;;;;;;11.37;10.27;;;;;;;12.21;59.35;95966.72;5027689;28;20529;-70
2023/03/22 02:06:25;;;;;;;13.33;10.23;;;;;;;12.13;59.15;95964.56;5027295;28;20253;-70
2023/03/22 02:08:51;;;;;;;14.73;10.70;;;;;;;12.18;58.76;95959.03;5027704;28;20896;-69
2023/03/22 02:11:24;;;;;;;16.60;11.30;;;;;;;12.20;59.71;95965.91;5027445;28;20464;-69
2023/03/22 02:14:18;;;;;;;12.13;10.00;;;;;;;12.13;59.50;95955.81;5027562;28;20407;-68
2023/03/22 02:17:05;;;;;;;13.23;9.67;;;;;;;12.06;59.71;95964.03;5011827;28;20970;-69
2023/03/22 02:19:30;;;;;;;11.00;10.00;;;;;;;12.08;59.26;95962.19;5027633;28;20592;-69
2023/03/22 02:22:14;;;;;;;11.90;10.00;;;;;;;12.05;59.13;95965.00;5027556;28;20505;-70
2023/03/22 02:24:58;;;;;;;10.83;9.73;;;;;;;12.02;59.86;95961.69;5027273;28;20178;-69
2023/03/22 02:28:00;;;;;;;15.37;10.97;;;;;;;12.04;59.67;95965.06;5027013;28;20413;-70
2023/03/22 02:30:59;;;;;;;12.90;9.87;;;;;;;11.99;60.05;95964.50;5027421;28;20555;-70
2023/03/22 02:33:55;;;;;;;14.07;10.27;;;;;;;11.96;60.18;95956.78;5026932;28;20406;-70
2023/03/22 02:36:46;;;;;;;19.23;11.10;;;;;;;11.97;59.54;95954.03;5026685;28;20433;-70
2023/03/22 02:39:33;;;;;;;12.73;9.47;;;;;;;11.79;60.53;95952.44;5027149;28;20462;-70
2023/03/22 02:42:06;;;;;;;19.23;9.80;;;;;;;11.79;60.32;95947.19;5026949;28;20504;-69
2023/03/22 02:44:43;;;;;;;17.30;10.70;;;;;;;11.79;60.02;95947.19;5027023;28;20838;-69
2023/03/22 02:47:19;;;;;;;9.77;8.63;;;;;;;11.91;60.08;95945.69;5026791;28;20818;-68
2023/03/22 02:49:57;;;;;;;10.80;9.80;;;;;;;11.69;60.42;95946.81;5027124;28;20430;-69
2023/03/22 02:52:27;;;;;;;10.57;9.63;;;;;;;11.70;60.90;95945.91;5026975;28;20442;-72
2023/03/22 02:55:23;;;;;;;11.30;10.20;;;;;;;11.72;60.00;95945.84;5026728;28;20417;-71
2023/03/22 02:58:02;;;;;;;12.70;10.00;;;;;;;11.61;60.25;95947.25;5026294;28;20423;-71
2023/03/22 03:00:30;;;;;;;9.97;8.93;;;;;;;11.61;60.82;95947.25;5026944;28;20449;-70
2023/03/22 03:03:09;;;;;;;11.33;9.13;;;;;;;11.64;60.79;95944.44;5026807;28;20405;-71
2023/03/22 03:05:38;;;;;;;11.47;10.27;;;;;;;11.59;60.70;95937.75;5026570;28;20421;-70
2023/03/22 03:08:05;;;;;;;11.90;9.80;;;;;;;11.62;60.48;95938.44;5026614;28;20779;-70
2023/03/22 03:10:31;;;;;;;23.07;11.57;;;;;;;11.52;61.17;95958.28;5026580;28;21255;-70
2023/03/22 03:12:57;;;;;;;13.23;10.27;;;;;;;11.57;61.19;95939.63;5026099;28;20467;-70
2023/03/22 03:15:24;;;;;;;15.37;10.20;;;;;;;11.44;61.75;95944.72;5026528;28;20437;-71
2023/03/22 03:18:31;;;;;;;17.23;10.67;;;;;;;11.47;61.67;95946.31;5026211;28;20213;-70
2023/03/22 03:21:37;;;;;;;12.67;10.27;;;;;;;11.42;61.79;95936.91;5026275;28;20521;-69
2023/03/22 03:24:18;;;;;;;12.97;11.27;;;;;;;11.40;61.97;95936.13;5026412;28;20417;-69
2023/03/22 03:27:04;;;;;;;12.87;11.50;;;;;;;11.44;61.88;95940.31;5026369;28;21169;-70
2023/03/22 03:29:47;;;;;;;13.23;10.43;;;;;;;11.21;62.63;95938.91;5026630;28;20399;-70
2023/03/22 03:32:27;;;;;;;13.20;10.23;;;;;;;11.20;63.20;95933.75;5026839;28;20549;-70
2023/03/22 03:35:06;;;;;;;12.60;11.30;;;;;;;11.26;62.62;95937.81;5026565;28;20406;-70
2023/03/22 03:37:43;;;;;;;14.50;12.37;;;;;;;11.19;62.92;95934.69;5026532;28;20494;-70
2023/03/22 03:40:12;;;;;;;12.37;11.17;;;;;;;11.27;61.97;95932.50;5026596;28;20493;-70
2023/03/22 03:42:48;;;;;;;10.73;9.70;;;;;;;11.13;62.65;95935.88;5026474;28;20414;-70
2023/03/22 03:45:16;;;;;;;12.60;10.10;;;;;;;11.17;62.56;95939.16;5028482;28;20460;-71
2023/03/22 03:47:45;;;;;;;12.73;10.50;;;;;;;11.12;62.89;95933.31;5029547;28;20540;-71
2023/03/22 03:50:14;;;;;;;18.67;10.90;;;;;;;11.18;62.72;95943.50;5027913;28;20410;-70
2023/03/22 03:52:40;;;;;;;14.53;10.70;;;;;;;11.22;62.39;95939.78;5027957;28;20413;-71
2023/03/22 03:55:06;;;;;;;12.00;10.70;;;;;;;11.26;62.29;95943.09;5026974;28;20529;-70
2023/03/22 03:57:31;;;;;;;16.43;11.10;;;;;;;11.28;62.00;95943.84;5026339;28;20171;-70
2023/03/22 03:59:57;;;;;;;14.43;10.93;;;;;;;11.25;62.26;95944.88;5026350;28;20472;-70
2023/03/22 04:02:22;;;;;;;43.77;13.63;;;;;;;11.19;62.03;95946.03;5026662;28;20290;-70
2023/03/22 04:04:47;;;;;;;14.60;10.60;;;;;;;11.19;62.27;95947.81;5026131;28;20183;-70
2023/03/22 04:07:13;;;;;;;12.80;10.20;;;;;;;11.12;62.17;95944.66;5025969;28;20634;-70
2023/03/22 04:09:40;;;;;;;11.23;9.70;;;;;;;11.04;62.55;95938.97;5026327;28;20172;-70
2023/03/22 04:12:08;;;;;;;14.33;9.27;;;;;;;11.04;62.22;95944.22;5026292;28;20605;-70
2023/03/22 04:14:34;;;;;;;11.30;8.97;;;;;;;10.96;62.51;95951.66;5026211;28;20928;-71
2023/03/22 04:16:59;;;;;;;12.57;8.40;;;;;;;10.98;62.49;95957.66;5024424;28;20474;-70
2023/03/22 04:19:25;;;;;;;10.87;8.57;;;;;;;11.01;62.10;95947.88;5026123;28;20560;-70
2023/03/22 04:21:51;;;;;;;11.47;8.47;;;;;;;10.87;62.38;95955.63;5025986;28;20234;-70
2023/03/22 04:24:18;;;;;;;10.23;7.70;;;;;;;10.84;62.71;95958.38;5029658;28;20190;-70
2023/03/22 04:26:43;;;;;;;9.83;7.07;;;;;;;10.72;63.04;95956.41;5029549;28;21268;-70
2023/03/22 04:29:09;;;;;;;13.03;6.80;;;;;;;10.73;62.23;95961.59;5029820;28;20415;-70
2023/03/22 04:31:38;;;;;;;7.80;6.93;;;;;;;10.79;62.11;95958.66;5029719;28;20183;-70
2023/03/22 04:34:06;;;;;;;14.47;6.50;;;;;;;10.77;61.88;95971.00;5029671;28;20197;-70
2023/03/22 04:36:38;;;;;;;7.87;5.80;;;;;;;10.69;61.97;95970.53;5029282;28;20438;-70
2023/03/22 04:39:07;;;;;;;11.13;6.27;;;;;;;10.63;62.03;95968.25;5029349;28;20507;-70
2023/03/22 04:41:33;;;;;;;25.23;7.50;;;;;;;10.58;62.25;95964.97;5029481;28;20418;-69
2023/03/22 04:44:02;;;;;;;19.90;6.73;;;;;;;10.54;61.91;95963.47;5029249;28;20489;-68
2023/03/22 04:46:29;;;;;;;12.60;6.10;;;;;;;10.48;61.74;95958.50;5028736;28;20441;-68
2023/03/22 04:48:54;;;;;;;7.03;5.10;;;;;;;10.45;62.42;95963.91;5029309;28;20422;-67
2023/03/22 04:51:20;;;;;;;11.00;6.20;;;;;;;10.49;62.24;95954.97;5029123;28;20406;-68
2023/03/22 04:53:45;;;;;;;10.40;5.43;;;;;;;10.50;62.16;95959.28;5029748;28;20171;-69
2023/03/22 04:56:13;;;;;;;11.00;5.87;;;;;;;10.50;61.82;95956.66;5029165;28;20717;-69
2023/03/22 04:58:40;;;;;;;12.03;5.90;;;;;;;10.53;62.01;95956.50;5029102;28;20570;-68
2023/03/22 05:01:08;;;;;;;14.57;5.83;;;;;;;10.44;62.23;95954.34;5027603;28;20476;-68
2023/03/22 05:03:35;;;;;;;10.93;6.00;;;;;;;10.11;63.16;95955.06;5029017;28;20456;-69
2023/03/22 05:06:02;;;;;;;12.27;6.53;;;;;;;10.15;63.14;95951.38;5026675;28;20502;-68
2023/03/22 05:08:29;;;;;;;7.97;6.40;;;;;;;10.14;62.63;95954.94;5025005;28;20425;-68
2023/03/22 05:10:57;;;;;;;9.27;6.47;;;;;;;10.08;62.98;95949.97;5028627;28;20406;-68
2023/03/22 05:13:25;;;;;;;12.63;6.67;;;;;;;10.10;62.48;95948.13;5028776;28;20501;-68
2023/03/22 05:15:51;;;;;;;9.37;6.10;;;;;;;10.06;63.41;95952.69;5028306;28;20438;-68
2023/03/22 05:18:23;;;;;;;12.73;5.73;;;;;;;10.05;62.82;95960.63;5028590;28;20911;-70
2023/03/22 05:20:49;;;;;;;6.10;5.13;;;;;;;9.80;64.08;95958.31;5027742;28;20438;-70
2023/03/22 05:23:19;;;;;;;8.60;5.87;;;;;;;9.91;63.62;95962.13;5028342;28;20425;-69
2023/03/22 05:25:49;;;;;;;20.73;7.40;;;;;;;10.05;63.33;95955.38;5028409;28;20430;-68
2023/03/22 05:28:18;;;;;;;15.80;6.17;;;;;;;10.31;62.34;95960.19;5028394;28;20950;-69
2023/03/22 05:30:44;;;;;;;26.80;8.50;;;;;;;10.47;62.10;95962.91;5031618;28;20440;-69
2023/03/22 05:33:11;;;;;;;46.27;9.93;;;;;;;10.51;61.68;95960.97;5034797;28;20406;-69
2023/03/22 05:35:38;;;;;;;15.17;6.30;;;;;;;10.73;60.66;95964.22;5022403;28;20863;-69
2023/03/22 05:38:05;;;;;;;13.20;6.87;;;;;;;10.86;59.97;95974.91;5023203;28;20432;-69
2023/03/22 05:40:31;;;;;;;24.33;7.07;;;;;;;10.86;59.83;95967.03;5034426;28;20461;-69
2023/03/22 05:42:56;;;;;;;24.50;6.70;;;;;;;11.15;58.75;95965.53;5032078;28;20466;-69
2023/03/22 05:45:22;;;;;;;21.30;6.70;;;;;;;11.77;56.54;95957.78;5027631;28;20211;-69
2023/03/22 05:47:48;;;;;;;28.40;9.57;;;;;;;12.20;54.97;95960.63;5026992;28;20198;-68
2023/03/22 05:50:17;;;;;;;39.40;9.10;;;;;;;12.82;53.04;95962.31;5028971;28;20446;-69
2023/03/22 05:52:43;;;;;;;20.23;7.20;;;;;;;13.28;51.77;95956.94;5025397;28;20418;-69
2023/03/22 05:55:11;;;;;;;31.60;7.93;;;;;;;13.77;49.92;95957.34;5025479;28;20449;-69
2023/03/22 05:57:37;;;;;;;195.50;24.80;;;;;;;14.25;48.73;95956.06;5024801;28;20429;-70
2023/03/22 06:00:05;;;;;;;34.30;9.20;;;;;;;15.13;46.40;95953.69;5027766;28;20477;-69
2023/03/22 06:02:31;;;;;;;16.33;6.60;;;;;;;15.82;45.10;95949.66;5024710;28;20441;-69
2023/03/22 06:04:56;;;;;;;13.03;6.13;;;;;;;16.12;43.76;95950.22;5016265;28;20430;-69
2023/03/22 06:07:21;;;;;;;8.07;6.93;;;;;;;16.43;43.44;95939.03;5024310;28;20183;-71
2023/03/22 06:09:48;;;;;;;9.73;8.80;;;;;;;16.54;43.16;95942.72;5024752;28;20206;-70
2023/03/22 06:12:15;;;;;;;22.53;10.20;;;;;;;16.90;42.66;95949.69;5024445;28;20199;-69
2023/03/22 06:14:40;;;;;;;21.00;9.30;;;;;;;17.20;41.34;95941.19;5019920;28;20504;-69
2023/03/22 06:17:05;;;;;;;15.60;10.50;;;;;;;17.48;40.89;95945.19;5023249;28;20518;-68
2023/03/22 06:19:31;;;;;;;20.63;10.33;;;;;;;17.93;40.19;95946.97;5030559;28;20267;-69
2023/03/22 06:21:56;;;;;;;14.43;6.40;;;;;;;18.89;41.80;95934.69;5030489;28;20286;-68
2023/03/22 06:24:22;;;;;;;31.77;10.30;;;;;;;19.07;38.10;95927.81;5023467;28;20194;-70
2023/03/22 06:26:47;;;;;;;25.80;13.37;;;;;;;18.29;38.82;95934.34;5023811;28;20882;-69
2023/03/22 06:29:13;;;;;;;44.57;12.60;;;;;;;18.48;38.63;95934.50;5024223;28;21025;-69
2023/03/22 06:31:38;;;;;;;18.03;11.47;;;;;;;18.40;38.95;95939.56;5030794;28;20594;-70
2023/03/22 06:34:04;;;;;;;24.50;10.70;;;;;;;18.69;38.11;95939.84;5028055;28;20191;-69
2023/03/22 06:36:30;;;;;;;19.67;10.40;;;;;;;19.11;37.42;95928.38;5020273;28;20227;-70
2023/03/22 06:38:57;;;;;;;16.60;10.90;;;;;;;19.39;36.92;95925.03;5024503;28;21024;-69
2023/03/22 06:41:23;;;;;;;17.73;10.63;;;;;;;19.19;36.83;95926.75;5025465;28;20179;-69
2023/03/22 06:43:48;;;;;;;14.73;11.50;;;;;;;19.09;37.17;95927.69;5028100;28;20430;-69
2023/03/22 06:46:14;;;;;;;14.03;10.97;;;;;;;19.28;36.74;95934.91;5025520;28;20215;-68
2023/03/22 06:48:39;;;;;;;14.47;10.00;;;;;;;19.39;36.52;95930.34;5029309;28;20179;-69
2023/03/22 06:51:05;;;;;;;16.23;10.97;;;;;;;19.40;36.31;95928.53;5027876;28;20635;-71
2023/03/22 06:53:31;;;;;;;19.40;10.73;;;;;;;19.49;36.48;95930.41;5029033;28;20188;-70
2023/03/22 06:55:56;;;;;;;12.77;11.50;;;;;;;20.14;35.46;95927.38;5028695;28;20827;-69
2023/03/22 06:58:22;;;;;;;18.33;12.03;;;;;;;19.97;35.45;95929.72;5027072;28;20663;-69
2023/03/22 07:00:47;;;;;;;14.97;11.13;;;;;;;19.55;36.34;95929.84;5024081;28;20188;-70
2023/03/22 07:03:13;;;;;;;22.53;10.63;;;;;;;19.42;36.60;95929.25;5027872;28;20182;-69
2023/03/22 07:05:38;;;;;;;30.20;11.47;;;;;;;19.49;36.37;95935.72;5032467;28;20214;-69
2023/03/22 07:08:04;;;;;;;17.20;9.77;;;;;;;19.62;36.76;95931.00;5023602;28;20191;-67
2023/03/22 07:10:30;;;;;;;51.33;13.00;;;;;;;18.99;37.75;95933.78;5027543;28;20167;-67
2023/03/22 07:12:55;;;;;;;21.23;10.93;;;;;;;19.03;37.58;95937.84;5043873;28;20237;-66
2023/03/22 07:15:23;;;;;;;24.20;9.87;;;;;;;19.11;37.49;95929.22;5033835;28;20211;-66
2023/03/22 07:17:50;;;;;;;12.63;9.23;;;;;;;19.03;37.63;95939.66;5028378;28;20262;-68
2023/03/22 07:20:17;;;;;;;13.63;9.90;;;;;;;18.99;37.76;95935.56;5024532;28;20488;-68
2023/03/22 07:22:42;;;;;;;30.30;9.67;;;;;;;18.99;38.00;95930.25;5030757;28;20425;-69
2023/03/22 07:25:08;;;;;;;15.40;11.20;;;;;;;19.01;37.85;95928.31;5024416;28;20513;-69
2023/03/22 07:27:35;;;;;;;18.27;10.50;;;;;;;18.94;37.88;95929.81;5019001;28;20187;-69
2023/03/22 07:30:01;;;;;;;13.83;9.77;;;;;;;19.10;37.90;95927.53;5022944;28;20438;-69
2023/03/22 07:32:26;;;;;;;14.00;10.57;;;;;;;19.36;37.41;95929.75;5022744;28;20927;-68
2023/03/22 07:34:52;;;;;;;12.53;9.60;;;;;;;19.11;37.91;95926.56;5023538;28;20437;-68
2023/03/22 07:37:17;;;;;;;10.70;9.60;;;;;;;19.39;37.17;95930.34;5022824;28;20270;-68
2023/03/22 07:39:42;;;;;;;10.63;9.47;;;;;;;18.96;38.04;95933.19;5024350;28;20212;-69
2023/03/22 07:42:08;;;;;;;23.23;10.13;;;;;;;19.13;37.79;95931.75;5024596;28;20183;-69
2023/03/22 07:44:34;;;;;;;33.47;11.43;;;;;;;19.23;37.58;95925.50;5025279;28;20637;-68
2023/03/22 07:47:00;;;;;;;36.67;10.93;;;;;;;19.17;37.40;95926.03;5031245;28;20632;-69
2023/03/22 07:49:26;;;;;;;19.57;9.80;;;;;;;19.34;37.38;95935.22;5024276;28;20560;-69
2023/03/22 07:51:52;;;;;;;39.23;11.50;;;;;;;19.72;36.82;95928.38;5026040;28;20179;-67
2023/03/22 07:54:17;;;;;;;32.57;10.50;;;;;;;20.03;36.17;95934.53;5016780;28;20472;-68
2023/03/22 07:56:43;;;;;;;27.03;10.63;;;;;;;20.12;35.75;95940.81;5031959;28;20242;-67
2023/03/22 07:59:09;;;;;;;25.63;10.10;;;;;;;20.32;35.50;95935.56;5029372;28;20221;-68
2023/03/22 08:01:35;;;;;;;22.73;11.43;;;;;;;20.35;35.73;95937.94;5032775;28;20442;-68
2023/03/22 08:04:01;;;;;;;21.00;10.00;;;;;;;20.52;35.37;95930.06;5035983;28;20184;-70
2023/03/22 08:06:26;;;;;;;16.83;10.53;;;;;;;20.47;35.13;95931.47;5039800;28;20907;-68
2023/03/22 08:08:52;;;;;;;16.63;10.30;;;;;;;20.50;35.01;95926.72;5027640;28;20487;-69
2023/03/22 08:11:17;;;;;;;10.40;9.33;;;;;;;20.45;35.06;95933.44;5027820;28;20280;-68
2023/03/22 08:13:43;;;;;;;17.23;9.00;;;;;;;20.49;35.18;95932.19;5027043;28;20251;-69
2023/03/22 08:16:09;;;;;;;22.27;11.00;;;;;;;20.60;34.85;95931.22;5042700;28;20345;-68
2023/03/22 08:18:34;;;;;;;21.63;8.90;;;;;;;20.70;34.41;95937.41;5029258;28;20277;-68
2023/03/22 08:21:00;;;;;;;15.13;9.13;;;;;;;20.62;34.03;95931.94;5030496;28;20508;-68
2023/03/22 08:23:26;;;;;;;28.53;9.50;;;;;;;20.88;34.14;95938.38;5036459;28;20182;-69
2023/03/22 08:25:52;;;;;;;11.60;7.90;;;;;;;20.48;33.61;95928.69;5036778;28;20195;-69
2023/03/22 08:28:18;;;;;;;8.90;7.50;;;;;;;20.83;33.43;95927.28;5037727;28;21020;-69
2023/03/22 08:30:46;;;;;;;12.13;7.60;;;;;;;20.86;32.88;95928.84;5028696;28;20441;-68
2023/03/22 08:33:12;;;;;;;11.20;7.97;;;;;;;20.96;33.25;95935.00;5032124;28;20183;-67
2023/03/22 08:35:38;;;;;;;7.23;6.57;;;;;;;20.86;32.68;95932.34;5032482;28;21399;-67
2023/03/22 08:38:04;;;;;;;12.70;7.57;;;;;;;20.60;32.66;95921.44;5027880;28;20600;-67
2023/03/22 08:40:30;;;;;;;14.20;8.20;;;;;;;20.69;33.10;95919.72;5027919;28;20261;-69
2023/03/22 08:42:55;;;;;;;26.10;8.60;;;;;;;21.17;31.85;95929.47;5025813;28;20283;-69
2023/03/22 08:45:21;;;;;;;20.83;7.03;;;;;;;21.30;31.52;95929.16;5026020;28;21135;-71
2023/03/22 08:47:46;;;;;;;11.47;7.13;;;;;;;21.10;32.02;95928.38;5026296;28;20613;-69
2023/03/22 08:50:12;;;;;;;25.80;9.47;;;;;;;21.13;31.77;95936.91;5032542;28;20175;-69
2023/03/22 08:52:38;;;;;;;53.93;11.87;;;;;;;21.31;32.30;95937.03;5033707;28;20183;-67
2023/03/22 08:55:09;;;;;;;14.43;7.67;;;;;;;21.28;32.23;95941.81;5027709;28;20226;-68
2023/03/22 08:57:35;;;;;;;6.73;6.03;;;;;;;21.48;30.95;95934.63;5026281;28;20949;-68
2023/03/22 09:00:05;;;;;;;10.60;6.40;;;;;;;21.43;31.51;95934.22;5029525;28;20513;-69
2023/03/22 09:02:31;;;;;;;9.77;7.00;;;;;;;21.43;31.98;95936.91;5027772;28;20433;-69
2023/03/22 09:04:56;;;;;;;9.63;6.40;;;;;;;21.66;31.72;95940.88;5032411;28;20441;-71
2023/03/22 09:07:23;;;;;;;10.00;7.77;;;;;;;21.76;31.45;95932.81;5029506;28;20219;-69
2023/03/22 09:09:49;;;;;;;7.17;6.47;;;;;;;21.44;30.70;95930.56;5029963;28;20172;-68
2023/03/22 09:12:15;;;;;;;9.70;6.70;;;;;;;21.60;30.75;95935.28;5027368;28;20442;-69
2023/03/22 09:14:40;;;;;;;21.33;6.93;;;;;;;21.56;31.15;95934.72;5027965;28;20894;-70
2023/03/22 09:17:06;;;;;;;19.97;7.20;;;;;;;21.41;31.07;95933.53;5026742;28;20188;-70
2023/03/22 09:19:31;;;;;;;26.70;8.40;;;;;;;21.65;31.38;95930.34;5027703;28;20203;-70
2023/03/22 09:21:57;;;;;;;59.43;12.07;;;;;;;21.88;31.41;95928.13;5027475;28;20175;-69
2023/03/22 09:24:22;;;;;;;64.80;11.80;;;;;;;21.98;31.12;95928.91;5027733;28;20190;-68
2023/03/22 09:26:48;;;;;;;10.33;7.40;;;;;;;21.81;31.45;95924.38;5026644;28;20210;-72
2023/03/22 09:29:14;;;;;;;16.53;7.47;;;;;;;21.41;32.27;95925.50;5027245;28;20241;-70
2023/03/22 09:31:40;;;;;;;8.00;6.57;;;;;;;21.52;32.21;95926.19;5025968;28;20187;-68
2023/03/22 09:34:05;;;;;;;28.23;8.40;;;;;;;21.88;31.14;95915.59;5007819;28;20259;-69
2023/03/22 09:36:31;;;;;;;9.73;6.17;;;;;;;21.51;31.53;95919.13;5004775;28;20295;-70
2023/03/22 09:38:58;;;;;;;6.13;5.53;;;;;;;21.14;31.77;95919.94;5007606;28;20230;-69
2023/03/22 09:41:41;;;;;;;7.57;4.90;;;;;;;21.35;31.41;95918.88;5011139;28;20184;-69
2023/03/22 09:44:13;;;;;;;13.67;4.27;;;;;;;21.44;31.19;95911.88;5034783;28;20410;-69
2023/03/22 09:46:43;;;;;;;14.53;5.03;;;;;;;21.45;31.15;95911.72;5025862;28;20462;-69
2023/03/22 09:49:17;;;;;;;11.53;4.40;;;;;;;21.44;31.21;95907.38;5027056;28;20503;-68
2023/03/22 09:51:44;;;;;;;13.27;4.60;;;;;;;21.39;31.50;95906.94;5030413;28;20785;-69
2023/03/22 09:54:34;;;;;;;19.00;5.10;;;;;;;20.96;31.89;95905.66;5029873;28;20447;-70
2023/03/22 09:57:32;;;;;;;19.73;4.70;;;;;;;20.98;31.56;95897.53;5026653;28;20449;-70
2023/03/22 10:00:17;;;;;;;6.80;4.40;;;;;;;20.48;32.86;95891.38;5029812;28;20566;-70
2023/03/22 10:03:08;;;;;;;5.90;4.07;;;;;;;20.59;33.18;95893.06;5034547;28;20495;-73
2023/03/22 10:05:46;;;;;;;14.38;5.00;;;;;;;21.18;31.92;95883.13;5036709;28;20438;-70
2023/03/22 10:08:49;;;;;;;26.83;6.80;;;;;;;21.42;31.48;95868.47;5027141;28;20210;-70
2023/03/22 10:11:42;;;;;;;16.30;4.47;;;;;;;21.03;32.49;95873.91;5006693;28;20422;-69
2023/03/22 10:14:26;;;;;;;9.13;4.03;;;;;;;20.99;32.24;95867.19;5026183;28;20406;-68
2023/03/22 10:16:54;;;;;;;27.30;5.20;;;;;;;21.41;31.62;95850.78;5025273;28;20434;-68
2023/03/22 10:19:32;;;;;;;5.97;3.60;;;;;;;21.54;33.66;95851.25;5027375;28;20563;-68
2023/03/22 10:22:01;;;;;;;25.97;5.70;;;;;;;21.33;34.21;95848.78;5025979;28;20523;-68
2023/03/22 10:24:32;;;;;;;27.43;6.67;;;;;;;21.62;33.02;95840.69;5026586;28;20410;-68
2023/03/22 10:26:58;;;;;;;6.63;3.43;;;;;;;21.40;33.00;95839.22;5028140;28;20465;-68
2023/03/22 10:29:34;;;;;;;8.37;3.20;;;;;;;21.61;32.67;95840.81;5027972;28;20427;-70
2023/03/22 10:32:21;;;;;;;60.63;9.90;;;;;;;21.31;33.04;95843.63;5027012;28;20175;-70
2023/03/22 10:34:48;;;;;;;5.30;3.17;;;;;;;20.80;31.87;95839.56;5026209;28;20556;-68
2023/03/22 10:37:25;;;;;;;5.50;3.80;;;;;;;20.51;32.85;95853.75;5026388;28;20438;-68
2023/03/22 10:39:56;;;;;;;16.13;4.90;;;;;;;20.62;32.86;95850.16;5026728;28;20921;-69
2023/03/22 10:42:25;;;;;;;7.80;4.20;;;;;;;20.56;33.13;95848.03;5026820;28;20414;-68
2023/03/22 10:44:59;;;;;;;6.70;3.60;;;;;;;20.59;35.19;95860.25;5030658;28;20512;-70
2023/03/22 10:47:45;;;;;;;19.90;4.70;;;;;;;20.65;33.06;95849.00;5024381;28;20460;-70
2023/03/22 10:50:17;;;;;;;17.13;6.40;;;;;;;20.66;32.95;95845.34;5020283;28;20410;-70
2023/03/22 10:53:00;;;;;;;45.07;7.53;;;;;;;20.83;33.10;95843.78;5025875;28;20406;-67
2023/03/22 10:55:25;;;;;;;49.20;9.10;;;;;;;20.77;33.06;95842.53;5025003;28;20853;-69
2023/03/22 10:58:11;;;;;;;656.67;92.30;;;;;;;21.15;32.46;95835.41;5024867;28;20433;-67
2023/03/22 11:00:36;;;;;;;19.83;6.43;;;;;;;20.70;33.33;95830.75;5024690;28;20179;-67
2023/03/22 11:03:05;;;;;;;27.30;6.17;;;;;;;20.87;34.01;95822.00;5026115;28;20421;-67
2023/03/22 11:05:30;;;;;;;26.93;6.43;;;;;;;20.94;34.38;95823.09;5027877;28;20194;-67
2023/03/22 11:10:49;;;;;;;67.63;9.47;;;;;;;21.10;32.19;95827.00;5063734;28;20540;-69
2023/03/22 11:13:21;;;;;;;37.20;7.00;;;;;;;20.90;31.91;95805.69;5063989;28;20413;-67
2023/03/22 11:15:53;;;;;;;56.57;7.63;;;;;;;21.00;32.13;95813.69;5062050;28;21133;-67
2023/03/22 11:18:19;;;;;;;204.77;19.10;;;;;;;21.27;31.21;95817.38;5058496;28;20456;-69
2023/03/22 11:20:55;;;;;;;1122.87;157.73;;;;;;;21.34;30.24;95813.94;5060025;28;20461;-69
2023/03/22 11:23:23;;;;;;;1151.50;154.13;;;;;;;21.85;29.74;95797.50;5062948;28;20185;-68
2023/03/22 11:25:51;;;;;;;26.17;5.70;;;;;;;21.36;30.25;95795.13;5046291;28;20567;-66
2023/03/22 11:28:19;;;;;;;10.43;3.37;;;;;;;21.10;30.52;95789.63;5049959;28;20426;-68
2023/03/22 11:31:08;;;;;;;15.43;4.03;;;;;;;21.07;30.71;95785.44;5059913;28;20942;-69
2023/03/22 11:33:35;;;;;;;16.23;4.03;;;;;;;20.91;30.76;95779.91;5054481;28;20544;-71
2023/03/22 11:36:14;;;;;;;40.33;5.20;;;;;;;20.85;31.06;95770.63;5051654;28;20957;-69
2023/03/22 11:38:42;;;;;;;11.90;4.03;;;;;;;20.70;31.26;95778.28;5062354;28;20432;-70